sensor_id;sensor_type;location;lat;lon;timestamp;pressure;altitude;pressure_sealevel;temperature;humidity
47983;BME280;33751;50.816;-1.214;2023-03-18T00:00:58;100348.56;;;24.63;100.00
47983;BME280;33751;50.816;-1.214;2023-03-18T00:03:25;100346.54;;;24.63;100.00
47983;BME280;33751;50.816;-1.214;2023-03-18T00:05:51;100344.04;;;24.92;100.00
47983;BME280;33751;50.816;-1.214;2023-03-18T00:08:18;100340.12;;;24.68;100.00
47983;BME280;33751;50.816;-1.214;2023-03-18T00:10:44;100341.16;;;24.90;100.00
47983;BME280;33751;50.816;-1.214;2023-03-18T00:13:11;100342.31;;;24.85;100.00
47983;BME280;33751;50.816;-1.214;2023-03-18T00:15:37;100345.27;;;24.53;100.00
47983;BME280;33751;50.816;-1.214;2023-03-18T00:18:05;100345.47;;;24.76;100.00
47983;BME280;33751;50.816;-1.214;2023-03-18T00:20:31;100347.47;;;24.76;100.00
47983;BME280;33751;50.816;-1.214;2023-03-18T00:22:57;100351.15;;;24.75;100.00
47983;BME280;33751;50.816;-1.214;2023-03-18T00:25:25;100349.35;;;24.40;100.00
47983;BME280;33751;50.816;-1.214;2023-03-18T00:27:51;100348.84;;;24.80;100.00
47983;BME280;33751;50.816;-1.214;2023-03-18T00:30:18;100351.72;;;24.75;100.00
47983;BME280;33751;50.816;-1.214;2023-03-18T00:32:44;100349.18;;;24.80;100.00
47983;BME280;33751;50.816;-1.214;2023-03-18T00:35:11;100351.92;;;24.50;100.00
47983;BME280;33751;50.816;-1.214;2023-03-18T00:37:38;100351.17;;;24.68;100.00
47983;BME280;33751;50.816;-1.214;2023-03-18T00:40:07;100354.16;;;24.68;100.00
47983;BME280;33751;50.816;-1.214;2023-03-18T00:42:37;100350.43;;;24.65;100.00
47983;BME280;33751;50.816;-1.214;2023-03-18T00:45:06;100348.66;;;24.61;100.00
47983;BME280;33751;50.816;-1.214;2023-03-18T00:47:34;100349.23;;;24.41;100.00
47983;BME280;33751;50.816;-1.214;2023-03-18T00:50:01;100353.84;;;24.61;100.00
47983;BME280;33751;50.816;-1.214;2023-03-18T00:52:28;100354.79;;;24.61;100.00
47983;BME280;33751;50.816;-1.214;2023-03-18T00:54:54;100355.51;;;24.66;100.00
47983;BME280;33751;50.816;-1.214;2023-03-18T00:57:21;100357.31;;;24.63;100.00
47983;BME280;33751;50.816;-1.214;2023-03-18T00:59:47;100358.02;;;24.63;100.00
47983;BME280;33751;50.816;-1.214;2023-03-18T01:02:14;100356.45;;;24.41;100.00
47983;BME280;33751;50.816;-1.214;2023-03-18T01:04:40;100354.62;;;24.44;100.00
47983;BME280;33751;50.816;-1.214;2023-03-18T01:07:07;100352.43;;;24.87;100.00
47983;BME280;33751;50.816;-1.214;2023-03-18T01:09:34;100352.59;;;24.83;100.00
47983;BME280;33751;50.816;-1.214;2023-03-18T01:12:00;100351.53;;;24.61;100.00
47983;BME280;33751;50.816;-1.214;2023-03-18T01:14:27;100347.36;;;24.56;100.00
47983;BME280;33751;50.816;-1.214;2023-03-18T01:16:54;100350.38;;;24.48;100.00
47983;BME280;33751;50.816;-1.214;2023-03-18T01:19:21;100346.73;;;24.76;100.00
47983;BME280;33751;50.816;-1.214;2023-03-18T01:21:47;100342.69;;;24.45;100.00
47983;BME280;33751;50.816;-1.214;2023-03-18T01:24:14;100338.93;;;24.72;100.00
47983;BME280;33751;50.816;-1.214;2023-03-18T01:26:41;100339.23;;;24.43;100.00
47983;BME280;33751;50.816;-1.214;2023-03-18T01:29:07;100339.93;;;24.64;100.00
47983;BME280;33751;50.816;-1.214;2023-03-18T01:31:34;100335.21;;;24.53;100.00
47983;BME280;33751;50.816;-1.214;2023-03-18T01:34:00;100331.44;;;24.24;100.00
47983;BME280;33751;50.816;-1.214;2023-03-18T01:36:27;100335.66;;;23.95;100.00
47983;BME280;33751;50.816;-1.214;2023-03-18T01:38:53;100328.58;;;24.09;100.00
47983;BME280;33751;50.816;-1.214;2023-03-18T01:41:21;100328.09;;;24.13;100.00
47983;BME280;33751;50.816;-1.214;2023-03-18T01:43:48;100327.73;;;23.92;100.00
47983;BME280;33751;50.816;-1.214;2023-03-18T01:46:48;100326.51;;;24.55;100.00
47983;BME280;33751;50.816;-1.214;2023-03-18T01:49:18;100325.20;;;23.93;100.00
47983;BME280;33751;50.816;-1.214;2023-03-18T01:51:50;100323.55;;;23.95;100.00
47983;BME280;33751;50.816;-1.214;2023-03-18T01:54:18;100321.22;;;24.18;100.00
47983;BME280;33751;50.816;-1.214;2023-03-18T01:56:47;100323.19;;;23.86;100.00
47983;BME280;33751;50.816;-1.214;2023-03-18T01:59:15;100321.95;;;24.31;100.00
47983;BME280;33751;50.816;-1.214;2023-03-18T02:01:49;100322.21;;;24.14;100.00
47983;BME280;33751;50.816;-1.214;2023-03-18T02:04:18;100321.48;;;23.57;100.00
47983;BME280;33751;50.816;-1.214;2023-03-18T02:06:45;100321.35;;;24.20;100.00
47983;BME280;33751;50.816;-1.214;2023-03-18T02:09:12;100324.10;;;24.06;100.00
47983;BME280;33751;50.816;-1.214;2023-03-18T02:11:42;100322.15;;;23.97;100.00
47983;BME280;33751;50.816;-1.214;2023-03-18T02:14:13;100323.11;;;23.93;100.00
47983;BME280;33751;50.816;-1.214;2023-03-18T02:16:44;100323.27;;;23.96;100.00
47983;BME280;33751;50.816;-1.214;2023-03-18T02:19:20;100326.71;;;24.02;100.00
47983;BME280;33751;50.816;-1.214;2023-03-18T02:21:53;100323.87;;;24.34;100.00
47983;BME280;33751;50.816;-1.214;2023-03-18T02:24:32;100326.15;;;24.44;100.00
47983;BME280;33751;50.816;-1.214;2023-03-18T02:27:11;100321.90;;;24.40;100.00
47983;BME280;33751;50.816;-1.214;2023-03-18T02:29:39;100319.05;;;24.40;100.00
47983;BME280;33751;50.816;-1.214;2023-03-18T02:32:08;100317.09;;;24.34;100.00
47983;BME280;33751;50.816;-1.214;2023-03-18T02:34:36;100318.17;;;24.12;100.00
47983;BME280;33751;50.816;-1.214;2023-03-18T02:37:04;100317.98;;;24.34;100.00
47983;BME280;33751;50.816;-1.214;2023-03-18T02:39:31;100315.33;;;24.39;100.00
47983;BME280;33751;50.816;-1.214;2023-03-18T02:41:57;100312.87;;;24.38;100.00
47983;BME280;33751;50.816;-1.214;2023-03-18T02:44:24;100308.73;;;24.36;100.00
47983;BME280;33751;50.816;-1.214;2023-03-18T02:46:53;100308.06;;;23.89;100.00
47983;BME280;33751;50.816;-1.214;2023-03-18T02:49:22;100307.90;;;24.21;100.00
47983;BME280;33751;50.816;-1.214;2023-03-18T02:51:50;100309.93;;;24.31;100.00
47983;BME280;33751;50.816;-1.214;2023-03-18T02:54:19;100310.74;;;24.10;100.00
47983;BME280;33751;50.816;-1.214;2023-03-18T02:56:47;100311.78;;;24.12;100.00
47983;BME280;33751;50.816;-1.214;2023-03-18T02:59:14;100311.31;;;24.36;100.00
47983;BME280;33751;50.816;-1.214;2023-03-18T03:01:42;100313.65;;;24.37;100.00
47983;BME280;33751;50.816;-1.214;2023-03-18T03:04:11;100314.29;;;24.31;100.00
47983;BME280;33751;50.816;-1.214;2023-03-18T03:06:38;100313.44;;;24.26;100.00
47983;BME280;33751;50.816;-1.214;2023-03-18T03:09:08;100317.55;;;23.99;100.00
47983;BME280;33751;50.816;-1.214;2023-03-18T03:11:36;100318.79;;;24.25;100.00
47983;BME280;33751;50.816;-1.214;2023-03-18T03:14:03;100317.58;;;24.00;100.00
47983;BME280;33751;50.816;-1.214;2023-03-18T03:16:30;100313.96;;;24.25;100.00
47983;BME280;33751;50.816;-1.214;2023-03-18T03:18:57;100310.44;;;24.22;100.00
47983;BME280;33751;50.816;-1.214;2023-03-18T03:21:24;100311.92;;;24.25;100.00
47983;BME280;33751;50.816;-1.214;2023-03-18T03:23:51;100317.02;;;24.23;100.00
47983;BME280;33751;50.816;-1.214;2023-03-18T03:26:17;100321.45;;;24.15;100.00
47983;BME280;33751;50.816;-1.214;2023-03-18T03:28:44;100325.35;;;24.21;100.00
47983;BME280;33751;50.816;-1.214;2023-03-18T03:31:10;100327.40;;;24.20;100.00
47983;BME280;33751;50.816;-1.214;2023-03-18T03:33:38;100327.74;;;24.18;100.00
47983;BME280;33751;50.816;-1.214;2023-03-18T03:36:06;100327.98;;;24.10;100.00
47983;BME280;33751;50.816;-1.214;2023-03-18T03:38:33;100328.80;;;24.07;100.00
47983;BME280;33751;50.816;-1.214;2023-03-18T03:41:00;100325.40;;;23.99;100.00
47983;BME280;33751;50.816;-1.214;2023-03-18T03:43:27;100324.63;;;24.02;100.00
47983;BME280;33751;50.816;-1.214;2023-03-18T03:45:53;100324.88;;;24.20;100.00
47983;BME280;33751;50.816;-1.214;2023-03-18T03:48:20;100324.16;;;23.92;100.00
47983;BME280;33751;50.816;-1.214;2023-03-18T03:50:49;100325.05;;;23.85;100.00
47983;BME280;33751;50.816;-1.214;2023-03-18T03:53:15;100322.06;;;23.92;100.00
47983;BME280;33751;50.816;-1.214;2023-03-18T03:55:42;100326.69;;;24.13;100.00
47983;BME280;33751;50.816;-1.214;2023-03-18T03:58:08;100325.74;;;23.93;100.00
47983;BME280;33751;50.816;-1.214;2023-03-18T04:00:35;100322.89;;;23.87;100.00
47983;BME280;33751;50.816;-1.214;2023-03-18T04:03:02;100319.76;;;23.83;100.00
47983;BME280;33751;50.816;-1.214;2023-03-18T04:05:30;100316.98;;;23.91;100.00
47983;BME280;33751;50.816;-1.214;2023-03-18T04:07:57;100318.26;;;24.28;100.00
47983;BME280;33751;50.816;-1.214;2023-03-18T04:10:23;100317.70;;;24.06;100.00
47983;BME280;33751;50.816;-1.214;2023-03-18T04:12:50;100318.01;;;23.95;100.00
47983;BME280;33751;50.816;-1.214;2023-03-18T04:15:18;100319.20;;;23.44;100.00
47983;BME280;33751;50.816;-1.214;2023-03-18T04:17:46;100320.43;;;23.71;100.00
47983;BME280;33751;50.816;-1.214;2023-03-18T04:20:13;100326.93;;;23.66;100.00
47983;BME280;33751;50.816;-1.214;2023-03-18T04:22:41;100328.33;;;24.01;100.00
47983;BME280;33751;50.816;-1.214;2023-03-18T04:25:09;100337.36;;;23.60;100.00
47983;BME280;33751;50.816;-1.214;2023-03-18T04:27:36;100340.41;;;23.69;100.00
47983;BME280;33751;50.816;-1.214;2023-03-18T04:30:04;100344.14;;;23.72;100.00
47983;BME280;33751;50.816;-1.214;2023-03-18T04:32:31;100341.76;;;23.75;100.00
47983;BME280;33751;50.816;-1.214;2023-03-18T04:34:59;100337.69;;;23.68;100.00
47983;BME280;33751;50.816;-1.214;2023-03-18T04:37:26;100332.36;;;23.69;100.00
47983;BME280;33751;50.816;-1.214;2023-03-18T04:39:53;100330.90;;;23.64;100.00
47983;BME280;33751;50.816;-1.214;2023-03-18T04:42:21;100327.63;;;23.68;100.00
47983;BME280;33751;50.816;-1.214;2023-03-18T04:44:47;100328.74;;;24.15;100.00
47983;BME280;33751;50.816;-1.214;2023-03-18T04:47:13;100324.97;;;23.71;100.00
47983;BME280;33751;50.816;-1.214;2023-03-18T04:49:40;100323.14;;;23.89;100.00
47983;BME280;33751;50.816;-1.214;2023-03-18T04:52:07;100325.75;;;23.72;100.00
47983;BME280;33751;50.816;-1.214;2023-03-18T04:54:34;100321.93;;;23.70;100.00
47983;BME280;33751;50.816;-1.214;2023-03-18T04:57:00;100321.72;;;23.74;100.00
47983;BME280;33751;50.816;-1.214;2023-03-18T04:59:27;100319.14;;;23.97;100.00
47983;BME280;33751;50.816;-1.214;2023-03-18T05:01:53;100322.68;;;23.74;100.00
47983;BME280;33751;50.816;-1.214;2023-03-18T05:04:20;100325.68;;;23.48;100.00
47983;BME280;33751;50.816;-1.214;2023-03-18T05:06:46;100324.38;;;23.94;100.00
47983;BME280;33751;50.816;-1.214;2023-03-18T05:09:13;100323.94;;;23.69;100.00
47983;BME280;33751;50.816;-1.214;2023-03-18T05:11:39;100319.54;;;23.90;100.00
47983;BME280;33751;50.816;-1.214;2023-03-18T05:14:06;100319.48;;;23.90;100.00
47983;BME280;33751;50.816;-1.214;2023-03-18T05:16:33;100317.96;;;23.40;100.00
47983;BME280;33751;50.816;-1.214;2023-03-18T05:18:59;100314.81;;;23.87;100.00
47983;BME280;33751;50.816;-1.214;2023-03-18T05:21:26;100311.80;;;23.66;100.00
47983;BME280;33751;50.816;-1.214;2023-03-18T05:23:52;100308.67;;;23.60;100.00
47983;BME280;33751;50.816;-1.214;2023-03-18T05:26:19;100306.47;;;23.66;100.00
47983;BME280;33751;50.816;-1.214;2023-03-18T05:28:45;100304.67;;;23.61;100.00
47983;BME280;33751;50.816;-1.214;2023-03-18T05:31:12;100308.94;;;23.60;100.00
47983;BME280;33751;50.816;-1.214;2023-03-18T05:33:38;100308.63;;;23.62;100.00
47983;BME280;33751;50.816;-1.214;2023-03-18T05:36:05;100309.43;;;23.60;100.00
47983;BME280;33751;50.816;-1.214;2023-03-18T05:38:33;100307.95;;;24.08;100.00
47983;BME280;33751;50.816;-1.214;2023-03-18T05:40:59;100307.99;;;23.80;100.00
47983;BME280;33751;50.816;-1.214;2023-03-18T05:43:26;100306.67;;;23.65;100.00
47983;BME280;33751;50.816;-1.214;2023-03-18T05:45:53;100309.21;;;23.86;100.00
47983;BME280;33751;50.816;-1.214;2023-03-18T05:48:20;100308.59;;;23.60;100.00
47983;BME280;33751;50.816;-1.214;2023-03-18T05:50:47;100307.04;;;23.33;100.00
47983;BME280;33751;50.816;-1.214;2023-03-18T05:53:14;100302.85;;;24.06;100.00
47983;BME280;33751;50.816;-1.214;2023-03-18T05:55:42;100303.35;;;23.57;100.00
47983;BME280;33751;50.816;-1.214;2023-03-18T05:58:10;100304.75;;;23.80;100.00
47983;BME280;33751;50.816;-1.214;2023-03-18T06:00:37;100304.71;;;23.82;100.00
47983;BME280;33751;50.816;-1.214;2023-03-18T06:03:04;100309.52;;;23.48;100.00
47983;BME280;33751;50.816;-1.214;2023-03-18T06:05:31;100313.50;;;23.98;100.00
47983;BME280;33751;50.816;-1.214;2023-03-18T06:07:58;100314.27;;;23.52;100.00
47983;BME280;33751;50.816;-1.214;2023-03-18T06:10:25;100314.97;;;23.99;100.00
47983;BME280;33751;50.816;-1.214;2023-03-18T06:12:52;100314.24;;;23.70;100.00
47983;BME280;33751;50.816;-1.214;2023-03-18T06:15:20;100315.03;;;23.90;100.00
47983;BME280;33751;50.816;-1.214;2023-03-18T06:17:47;100317.13;;;23.93;100.00
47983;BME280;33751;50.816;-1.214;2023-03-18T06:20:14;100317.05;;;23.52;100.00
47983;BME280;33751;50.816;-1.214;2023-03-18T06:22:41;100319.44;;;23.72;100.00
47983;BME280;33751;50.816;-1.214;2023-03-18T06:25:09;100319.95;;;23.20;100.00
47983;BME280;33751;50.816;-1.214;2023-03-18T06:27:36;100321.95;;;23.95;100.00
47983;BME280;33751;50.816;-1.214;2023-03-18T06:30:04;100320.88;;;23.63;100.00
47983;BME280;33751;50.816;-1.214;2023-03-18T06:32:30;100320.04;;;23.84;100.00
47983;BME280;33751;50.816;-1.214;2023-03-18T06:34:57;100319.07;;;23.44;100.00
47983;BME280;33751;50.816;-1.214;2023-03-18T06:37:23;100321.02;;;23.72;100.00
47983;BME280;33751;50.816;-1.214;2023-03-18T06:39:50;100322.63;;;23.76;100.00
47983;BME280;33751;50.816;-1.214;2023-03-18T06:42:17;100324.19;;;23.83;100.00
47983;BME280;33751;50.816;-1.214;2023-03-18T06:44:45;100322.24;;;23.63;100.00
47983;BME280;33751;50.816;-1.214;2023-03-18T06:47:12;100325.85;;;23.70;100.00
47983;BME280;33751;50.816;-1.214;2023-03-18T06:49:38;100328.72;;;23.67;100.00
47983;BME280;33751;50.816;-1.214;2023-03-18T06:52:05;100330.81;;;23.80;100.00
47983;BME280;33751;50.816;-1.214;2023-03-18T06:54:32;100334.34;;;23.86;100.00
47983;BME280;33751;50.816;-1.214;2023-03-18T06:56:59;100329.17;;;23.95;100.00
47983;BME280;33751;50.816;-1.214;2023-03-18T06:59:26;100331.73;;;24.01;100.00
47983;BME280;33751;50.816;-1.214;2023-03-18T07:01:52;100333.29;;;24.10;100.00
47983;BME280;33751;50.816;-1.214;2023-03-18T07:04:19;100336.95;;;24.18;100.00
47983;BME280;33751;50.816;-1.214;2023-03-18T07:06:45;100337.89;;;24.48;100.00
47983;BME280;33751;50.816;-1.214;2023-03-18T07:09:12;100337.64;;;24.70;100.00
47983;BME280;33751;50.816;-1.214;2023-03-18T07:11:38;100337.09;;;24.22;100.00
47983;BME280;33751;50.816;-1.214;2023-03-18T07:14:05;100339.71;;;24.40;100.00
47983;BME280;33751;50.816;-1.214;2023-03-18T07:16:31;100341.88;;;24.40;100.00
47983;BME280;33751;50.816;-1.214;2023-03-18T07:18:58;100346.71;;;24.38;100.00
47983;BME280;33751;50.816;-1.214;2023-03-18T07:21:25;100348.78;;;24.34;100.00
47983;BME280;33751;50.816;-1.214;2023-03-18T07:23:51;100349.31;;;24.34;100.00
47983;BME280;33751;50.816;-1.214;2023-03-18T07:26:19;100347.86;;;24.15;100.00
47983;BME280;33751;50.816;-1.214;2023-03-18T07:28:45;100347.46;;;24.47;100.00
47983;BME280;33751;50.816;-1.214;2023-03-18T07:31:12;100347.09;;;24.17;100.00
47983;BME280;33751;50.816;-1.214;2023-03-18T07:33:39;100350.15;;;24.49;100.00
47983;BME280;33751;50.816;-1.214;2023-03-18T07:36:06;100346.73;;;24.51;100.00
47983;BME280;33751;50.816;-1.214;2023-03-18T07:38:33;100346.05;;;24.58;100.00
47983;BME280;33751;50.816;-1.214;2023-03-18T07:41:00;100346.44;;;24.34;100.00
47983;BME280;33751;50.816;-1.214;2023-03-18T07:43:27;100348.47;;;24.73;100.00
47983;BME280;33751;50.816;-1.214;2023-03-18T07:45:54;100352.78;;;24.58;100.00
47983;BME280;33751;50.816;-1.214;2023-03-18T07:48:21;100353.87;;;24.50;100.00
47983;BME280;33751;50.816;-1.214;2023-03-18T07:50:48;100349.33;;;24.80;100.00
47983;BME280;33751;50.816;-1.214;2023-03-18T07:53:15;100347.27;;;25.16;100.00
47983;BME280;33751;50.816;-1.214;2023-03-18T07:55:41;100347.41;;;24.67;100.00
47983;BME280;33751;50.816;-1.214;2023-03-18T07:58:08;100347.21;;;24.92;100.00
47983;BME280;33751;50.816;-1.214;2023-03-18T08:00:34;100352.11;;;24.78;100.00
47983;BME280;33751;50.816;-1.214;2023-03-18T08:03:01;100352.74;;;25.18;100.00
47983;BME280;33751;50.816;-1.214;2023-03-18T08:05:28;100352.09;;;25.48;100.00
47983;BME280;33751;50.816;-1.214;2023-03-18T08:07:54;100358.44;;;26.22;100.00
47983;BME280;33751;50.816;-1.214;2023-03-18T08:10:21;100359.80;;;26.35;100.00
47983;BME280;33751;50.816;-1.214;2023-03-18T08:12:48;100365.46;;;26.70;100.00
47983;BME280;33751;50.816;-1.214;2023-03-18T08:15:15;100366.96;;;26.09;100.00
47983;BME280;33751;50.816;-1.214;2023-03-18T08:17:41;100366.84;;;25.92;100.00
47983;BME280;33751;50.816;-1.214;2023-03-18T08:20:09;100370.00;;;25.93;100.00
47983;BME280;33751;50.816;-1.214;2023-03-18T08:22:36;100374.39;;;25.92;100.00
47983;BME280;33751;50.816;-1.214;2023-03-18T08:25:04;100376.46;;;26.22;100.00
47983;BME280;33751;50.816;-1.214;2023-03-18T08:27:31;100376.68;;;25.92;100.00
47983;BME280;33751;50.816;-1.214;2023-03-18T08:29:58;100376.65;;;25.87;100.00
47983;BME280;33751;50.816;-1.214;2023-03-18T08:32:24;100374.48;;;26.28;100.00
47983;BME280;33751;50.816;-1.214;2023-03-18T08:34:51;100373.55;;;25.99;100.00
47983;BME280;33751;50.816;-1.214;2023-03-18T08:37:17;100369.14;;;26.19;100.00
47983;BME280;33751;50.816;-1.214;2023-03-18T08:39:45;100370.07;;;26.08;100.00
47983;BME280;33751;50.816;-1.214;2023-03-18T08:42:12;100370.86;;;25.40;100.00
47983;BME280;33751;50.816;-1.214;2023-03-18T08:44:39;100376.66;;;25.32;100.00
47983;BME280;33751;50.816;-1.214;2023-03-18T08:47:06;100381.34;;;25.62;100.00
47983;BME280;33751;50.816;-1.214;2023-03-18T08:49:33;100383.44;;;25.36;100.00
47983;BME280;33751;50.816;-1.214;2023-03-18T08:52:00;100387.22;;;25.25;100.00
47983;BME280;33751;50.816;-1.214;2023-03-18T08:54:27;100389.14;;;25.26;100.00
47983;BME280;33751;50.816;-1.214;2023-03-18T08:56:54;100391.19;;;25.23;100.00
47983;BME280;33751;50.816;-1.214;2023-03-18T08:59:21;100390.78;;;25.29;100.00
47983;BME280;33751;50.816;-1.214;2023-03-18T09:01:48;100392.53;;;25.30;100.00
47983;BME280;33751;50.816;-1.214;2023-03-18T09:04:14;100393.41;;;25.78;100.00
47983;BME280;33751;50.816;-1.214;2023-03-18T09:06:41;100391.63;;;25.74;100.00
47983;BME280;33751;50.816;-1.214;2023-03-18T09:09:08;100393.71;;;26.26;100.00
47983;BME280;33751;50.816;-1.214;2023-03-18T09:11:35;100397.14;;;25.95;100.00
47983;BME280;33751;50.816;-1.214;2023-03-18T09:14:02;100393.19;;;26.02;100.00
47983;BME280;33751;50.816;-1.214;2023-03-18T09:16:28;100391.00;;;25.90;100.00
47983;BME280;33751;50.816;-1.214;2023-03-18T09:18:55;100391.80;;;25.84;100.00
47983;BME280;33751;50.816;-1.214;2023-03-18T09:21:22;100392.61;;;26.04;100.00
47983;BME280;33751;50.816;-1.214;2023-03-18T09:23:49;100393.50;;;25.86;100.00
47983;BME280;33751;50.816;-1.214;2023-03-18T09:26:16;100399.10;;;25.51;100.00
47983;BME280;33751;50.816;-1.214;2023-03-18T09:28:43;100405.60;;;25.64;100.00
47983;BME280;33751;50.816;-1.214;2023-03-18T09:31:10;100409.83;;;25.87;100.00
47983;BME280;33751;50.816;-1.214;2023-03-18T09:33:37;100408.67;;;25.45;100.00
47983;BME280;33751;50.816;-1.214;2023-03-18T09:36:04;100414.45;;;25.48;100.00
47983;BME280;33751;50.816;-1.214;2023-03-18T09:38:31;100412.47;;;25.64;100.00
47983;BME280;33751;50.816;-1.214;2023-03-18T09:41:04;100413.22;;;26.14;100.00
47983;BME280;33751;50.816;-1.214;2023-03-18T09:43:49;100410.47;;;26.43;100.00
47983;BME280;33751;50.816;-1.214;2023-03-18T09:46:25;100409.44;;;26.69;100.00
47983;BME280;33751;50.816;-1.214;2023-03-18T09:49:34;100411.94;;;27.25;100.00
47983;BME280;33751;50.816;-1.214;2023-03-18T09:52:15;100415.93;;;26.45;100.00
47983;BME280;33751;50.816;-1.214;2023-03-18T09:54:48;100417.96;;;26.92;100.00
47983;BME280;33751;50.816;-1.214;2023-03-18T09:57:24;100420.67;;;27.30;100.00
47983;BME280;33751;50.816;-1.214;2023-03-18T09:59:54;100423.07;;;26.95;100.00
47983;BME280;33751;50.816;-1.214;2023-03-18T10:02:30;100429.40;;;27.21;100.00
47983;BME280;33751;50.816;-1.214;2023-03-18T10:05:01;100429.03;;;27.37;100.00
47983;BME280;33751;50.816;-1.214;2023-03-18T10:07:32;100430.09;;;27.43;100.00
47983;BME280;33751;50.816;-1.214;2023-03-18T10:10:05;100429.22;;;27.46;100.00
47983;BME280;33751;50.816;-1.214;2023-03-18T10:12:36;100431.63;;;27.45;100.00
47983;BME280;33751;50.816;-1.214;2023-03-18T10:15:13;100435.06;;;27.59;100.00
47983;BME280;33751;50.816;-1.214;2023-03-18T10:17:43;100436.64;;;27.42;100.00
47983;BME280;33751;50.816;-1.214;2023-03-18T10:20:18;100436.19;;;27.48;100.00
47983;BME280;33751;50.816;-1.214;2023-03-18T10:22:54;100437.82;;;27.47;100.00
47983;BME280;33751;50.816;-1.214;2023-03-18T10:25:25;100444.15;;;27.64;100.00
47983;BME280;33751;50.816;-1.214;2023-03-18T10:28:47;100440.88;;;28.14;100.00
47983;BME280;33751;50.816;-1.214;2023-03-18T10:31:28;100443.68;;;28.04;100.00
47983;BME280;33751;50.816;-1.214;2023-03-18T10:34:00;100451.24;;;27.31;100.00
47983;BME280;33751;50.816;-1.214;2023-03-18T10:36:34;100458.91;;;27.11;100.00
47983;BME280;33751;50.816;-1.214;2023-03-18T10:39:11;100458.74;;;27.02;100.00
47983;BME280;33751;50.816;-1.214;2023-03-18T10:41:39;100455.66;;;26.91;100.00
47983;BME280;33751;50.816;-1.214;2023-03-18T10:44:16;100452.54;;;27.17;100.00
47983;BME280;33751;50.816;-1.214;2023-03-18T10:46:45;100448.05;;;27.10;100.00
47983;BME280;33751;50.816;-1.214;2023-03-18T10:49:15;100453.27;;;27.22;100.00
47983;BME280;33751;50.816;-1.214;2023-03-18T10:51:49;100458.80;;;26.78;100.00
47983;BME280;33751;50.816;-1.214;2023-03-18T10:54:22;100461.18;;;26.87;100.00
47983;BME280;33751;50.816;-1.214;2023-03-18T10:56:51;100462.08;;;26.96;100.00
47983;BME280;33751;50.816;-1.214;2023-03-18T10:59:20;100461.25;;;27.20;100.00
47983;BME280;33751;50.816;-1.214;2023-03-18T11:01:51;100463.56;;;26.93;100.00
47983;BME280;33751;50.816;-1.214;2023-03-18T11:04:19;100468.69;;;26.89;100.00
47983;BME280;33751;50.816;-1.214;2023-03-18T11:06:49;100471.16;;;26.74;100.00
47983;BME280;33751;50.816;-1.214;2023-03-18T11:09:19;100471.55;;;27.43;100.00
47983;BME280;33751;50.816;-1.214;2023-03-18T11:11:47;100477.75;;;27.38;100.00
47983;BME280;33751;50.816;-1.214;2023-03-18T11:14:18;100481.33;;;26.83;100.00
47983;BME280;33751;50.816;-1.214;2023-03-18T11:16:46;100484.30;;;26.79;100.00
47983;BME280;33751;50.816;-1.214;2023-03-18T11:19:25;100484.03;;;27.33;100.00
47983;BME280;33751;50.816;-1.214;2023-03-18T11:22:00;100481.73;;;27.00;100.00
47983;BME280;33751;50.816;-1.214;2023-03-18T11:24:29;100482.02;;;27.20;100.00
47983;BME280;33751;50.816;-1.214;2023-03-18T11:26:56;100487.25;;;26.99;100.00
47983;BME280;33751;50.816;-1.214;2023-03-18T11:29:27;100496.11;;;26.97;100.00
47983;BME280;33751;50.816;-1.214;2023-03-18T11:31:57;100503.13;;;26.89;100.00
47983;BME280;33751;50.816;-1.214;2023-03-18T11:34:26;100507.26;;;27.22;100.00
47983;BME280;33751;50.816;-1.214;2023-03-18T11:36:56;100504.84;;;27.27;100.00
47983;BME280;33751;50.816;-1.214;2023-03-18T11:39:24;100502.81;;;26.85;100.00
47983;BME280;33751;50.816;-1.214;2023-03-18T11:41:52;100501.42;;;26.82;100.00
47983;BME280;33751;50.816;-1.214;2023-03-18T11:44:24;100503.82;;;26.93;100.00
47983;BME280;33751;50.816;-1.214;2023-03-18T11:46:57;100506.14;;;26.81;100.00
47983;BME280;33751;50.816;-1.214;2023-03-18T11:49:26;100504.14;;;26.63;100.00
47983;BME280;33751;50.816;-1.214;2023-03-18T11:52:02;100506.07;;;26.56;100.00
47983;BME280;33751;50.816;-1.214;2023-03-18T11:54:59;100510.83;;;26.19;100.00
47983;BME280;33751;50.816;-1.214;2023-03-18T11:57:35;100508.93;;;26.21;100.00
47983;BME280;33751;50.816;-1.214;2023-03-18T12:00:16;100508.06;;;26.04;100.00
47983;BME280;33751;50.816;-1.214;2023-03-18T12:03:35;100508.31;;;26.74;100.00
47983;BME280;33751;50.816;-1.214;2023-03-18T12:06:14;100509.13;;;25.99;100.00
47983;BME280;33751;50.816;-1.214;2023-03-18T12:08:49;100510.21;;;26.16;100.00
47983;BME280;33751;50.816;-1.214;2023-03-18T12:11:33;100510.54;;;25.99;100.00
47983;BME280;33751;50.816;-1.214;2023-03-18T12:14:13;100513.60;;;26.03;100.00
47983;BME280;33751;50.816;-1.214;2023-03-18T12:16:52;100513.52;;;26.05;100.00
47983;BME280;33751;50.816;-1.214;2023-03-18T12:19:40;100517.01;;;25.90;100.00
47983;BME280;33751;50.816;-1.214;2023-03-18T12:22:22;100521.36;;;25.81;100.00
47983;BME280;33751;50.816;-1.214;2023-03-18T12:25:05;100520.98;;;26.02;100.00
47983;BME280;33751;50.816;-1.214;2023-03-18T12:27:42;100520.99;;;25.94;100.00
47983;BME280;33751;50.816;-1.214;2023-03-18T12:30:27;100520.63;;;26.07;100.00
47983;BME280;33751;50.816;-1.214;2023-03-18T12:33:02;100520.44;;;26.05;100.00
47983;BME280;33751;50.816;-1.214;2023-03-18T12:35:41;100520.84;;;25.77;100.00
47983;BME280;33751;50.816;-1.214;2023-03-18T12:38:40;100521.55;;;25.88;100.00
47983;BME280;33751;50.816;-1.214;2023-03-18T12:41:15;100523.77;;;25.81;100.00